• Join FlightAware (Why Join?)
  • Login
  • US Flag 
06:10PM EDT


 

Airport Tracker/Info


-or-


 

Live Flight TrackerFlight Track Log ✈ EJM685 ✈ 08-Oct-2013 ✈ KFTY - KIAD

Flight Track Log - Related Links

Times and Time Zones

All times are in EDT time to prevent confusion due to time zone crossing. See the EJM685 flight status page for this flight to view local times or setup timezone preferences in your user account.

Time Position Orientation Groundspeed Altitude Reporting Facility
EDT Latitude Longitude Course Direction KTS MPH feet Rate Location/Type
12:32AM 33.7833 -84.4833 84° East 161 185 2,600  Level Atlanta TRACON
12:34AM 33.7917 -84.3939 84° East 204 235 4,200 2,040 Climbing Atlanta Center
12:35AM 33.8022 -84.3239 80° East 204 235 7,800 3,120 Climbing Atlanta Center
12:36AM 33.8150 -84.2364 80° East 236 272 10,500 2,280 Climbing Atlanta Center
12:37AM 33.8275 -84.1239 82° East 301 346 12,400 2,580 Climbing Atlanta Center
12:38AM 33.8422 -83.9989 82° East 352 405 15,700 3,120 Climbing Atlanta Center
12:39AM 33.9069 -83.8986 52° Northeast 359 413 18,700 2,820 Climbing Atlanta Center
12:40AM 33.9881 -83.8083 43° Northeast 367 422 21,400 2,640 Climbing Atlanta Center
12:41AM 34.0714 -83.7128 44° Northeast 394 453 24,000 2,520 Climbing Atlanta Center
12:42AM 34.1608 -83.6094 44° Northeast 425 489 26,500 2,460 Climbing Atlanta Center
12:44AM 34.2790 -83.4707 44° Northeast  Level Estimated
12:51AM 34.8226 -82.8253 44° Northeast  Level Estimated
12:52AM 34.8999 -82.7324 45° Northeast  Level Estimated
12:53AM 34.9772 -82.6393 45° Northeast  Level Estimated
12:54AM 35.0544 -82.5460 45° Northeast  Level Estimated
12:55AM 35.1316 -82.4526 45° Northeast  Level Estimated
12:56AM 35.2087 -82.3590 45° Northeast  Level Estimated
12:57AM 35.2857 -82.2652 45° Northeast  Level Estimated
12:58AM 35.3626 -82.1713 45° Northeast  Level Estimated
12:59AM 35.4395 -82.0771 45° Northeast  Level Estimated
01:00AM 35.5163 -81.9828 45° Northeast  Level Estimated
01:01AM 35.5930 -81.8883 45° Northeast  Level Estimated
01:02AM 35.6696 -81.7936 45° Northeast  Level Estimated
01:03AM 35.7462 -81.6988 45° Northeast  Level Estimated
01:04AM 35.8227 -81.6037 45° Northeast  Level Estimated
01:05AM 35.8991 -81.5085 45° Northeast  Level Estimated
01:06AM 35.9754 -81.4131 45° Northeast  Level Estimated
01:07AM 36.0517 -81.3175 45° Northeast  Level Estimated
01:08AM 36.1279 -81.2217 45° Northeast  Level Estimated
01:09AM 36.2040 -81.1257 45° Northeast  Level Estimated
01:10AM 36.2800 -81.0296 46° Northeast  Level Estimated
01:11AM 36.3560 -80.9333 46° Northeast  Level Estimated
01:12AM 36.4319 -80.8367 46° Northeast  Level Estimated
01:13AM 36.5077 -80.7400 46° Northeast  Level Estimated
01:14AM 36.5834 -80.6431 46° Northeast  Level Estimated
01:15AM 36.6591 -80.5460 46° Northeast  Level Estimated
01:16AM 36.7346 -80.4487 46° Northeast  Level Estimated
01:17AM 36.8101 -80.3512 46° Northeast  Level Estimated
01:18AM 36.8856 -80.2535 46° Northeast  Level Estimated
01:19AM 36.9609 -80.1557 46° Northeast  Level Estimated
01:20AM 37.0361 -80.0576 46° Northeast  Level Estimated
01:21AM 37.1113 -79.9594 46° Northeast  Level Estimated
01:22AM 37.1864 -79.8609 46° Northeast  Level Estimated
01:23AM 37.2614 -79.7623 46° Northeast  Level Estimated
01:24AM 37.3363 -79.6634 46° Northeast  Level Estimated
01:25AM 37.4112 -79.5644 46° Northeast  Level Estimated
01:26AM 37.4859 -79.4651 46° Northeast  Level Estimated
01:27AM 37.5606 -79.3657 47° Northeast  Level Estimated
01:28AM 37.6352 -79.2661 47° Northeast  Level Estimated
01:29AM 37.7097 -79.1663 47° Northeast  Level Estimated
01:30AM 37.7841 -79.0662 47° Northeast  Level Estimated
01:31AM 37.8585 -78.9660 47° Northeast  Level Estimated
01:32AM 37.9327 -78.8655 47° Northeast  Level Estimated
01:33AM 38.0069 -78.7649 47° Northeast  Level Estimated
01:34AM 38.0810 -78.6640 47° Northeast  Level Estimated
01:35AM 38.1550 -78.5630 47° Northeast  Level Estimated
01:36AM 38.2289 -78.4617 47° Northeast  Level Estimated
01:37AM 38.3027 -78.3603 47° Northeast  Level Estimated
01:38AM 38.3764 -78.2586 47° Northeast  Level Estimated
01:39AM 38.4501 -78.1567 47° Northeast  Level Estimated
01:40AM 38.5236 -78.0546 47° Northeast  Level Estimated
01:41AM 38.5971 -77.9524 47° Northeast  Level Estimated
01:42AM 38.6705 -77.8499 47° Northeast  Level Estimated
01:43AM 38.7438 -77.7471 48° Northeast  Level Estimated
01:44AM 38.8170 -77.6442 48° Northeast  Level Estimated
01:45AM 38.8901 -77.5411 48° Northeast  Level Estimated
01:46AM 38.9474 -77.4599 48° Northeast  Level Estimated
01:47AM 38.9474 -77.4599 322° Northwest  Level Estimated
01:48AM 38.9474 -77.4599 322° Northwest  Level Estimated
01:49AM 38.9474 -77.4599 322° Northwest  Level Estimated
01:50AM 38.9474 -77.4599 322° Northwest  Level Estimated
01:51AM 38.9474 -77.4599 322° Northwest  Level Estimated
01:52AM 38.9474 -77.4599 322° Northwest  Level Estimated
01:53AM 38.9474 -77.4599 322° Northwest  Level Estimated
01:54AM 38.9474 -77.4599 322° Northwest  Level Estimated
01:55AM 38.9474 -77.4599 322° Northwest  Level Estimated
01:56AM 38.9474 -77.4599 322° Northwest  Level Estimated
01:57AM 38.9474 -77.4599 322° Northwest  Level Estimated
01:58AM 38.9474 -77.4599 322° Northwest  Level Estimated
01:59AM 38.9474 -77.4599 322° Northwest  Level Estimated
02:00AM 38.9474 -77.4599 322° Northwest  Level Estimated
02:01AM 38.9474 -77.4599 322° Northwest  Level Estimated
02:02AM 38.9474 -77.4599 322° Northwest  Level Estimated
02:03AM 38.9474 -77.4599 322° Northwest  Level Estimated
02:04AM 38.9474 -77.4599 322° Northwest  Level Estimated
02:05AM 38.9474 -77.4599 322° Northwest  Level Estimated
02:06AM 38.9474 -77.4599 322° Northwest  Level Estimated
02:07AM 38.9474 -77.4599 322° Northwest  Level Estimated
02:08AM 38.9474 -77.4599 322° Northwest  Level Estimated
02:09AM 38.9474 -77.4599 322° Northwest  Level Estimated
02:10AM 38.9474 -77.4599 322° Northwest  Level Estimated
02:11AM 38.9474 -77.4599 322° Northwest  Level Estimated